Terminal Aerodrome Forecast
Issued by NWS King Salmon, AK

Home | Current Version | Previous Version | Text Only | Print | Product List | Glossary On
Versions: 1 2 3 4 5 6 7 8 9 10 11 12 13 14 15
000
FTAK31 PANC 020524
TAFAKN
TAF
PAKN 020524Z 0206/0306 VRB06KT P6SM -SHRA SCT035 BKN050 BKN120
     FM021500 16003KT P6SM VCSH SCT050 BKN100
     FM030000 21010KT P6SM -SHRA SCT025 BKN050=

USA.gov is the U.S. government's official web portal to all federal, state and local government web resources and services.